Time;durP1;ratioP1;P1;durP2;ratioP2;P2;SDS_P1;SDS_P2;PMS_P1;PMS_P2;Temp;Humidity;BMP_temperature;BMP_pressure;BME280_temperature;BME280_humidity;BME280_pressure;Samples;Min_cycle;Max_cycle;Signal;HPM_P1;HPM_P2
2022/01/01 00:00:51;;;;;;;54.23;36.27;;;;;;;;;;5053925;28;20049;-56
2022/01/01 00:03:16;;;;;;;52.57;27.77;;;;;;;;;;5050375;28;20629;-56
2022/01/01 00:05:41;;;;;;;57.33;29.03;;;;;;;;;;5056382;28;20451;-56
2022/01/01 00:08:08;;;;;;;45.85;26.38;;;;;;;;;;5069348;28;20076;-56
2022/01/01 00:10:33;;;;;;;45.63;27.55;;;;;;;;;;5048676;28;20132;-56
2022/01/01 00:12:58;;;;;;;59.88;31.60;;;;;;;;;;5048699;28;20485;-56
2022/01/01 00:15:24;;;;;;;39.00;25.33;;;;;;;;;;5048999;28;20041;-56
2022/01/01 00:17:49;;;;;;;51.72;30.98;;;;;;;;;;5053630;28;20045;-55
2022/01/01 00:20:14;;;;;;;52.28;27.88;;;;;;;;;;5049507;28;20043;-55
2022/01/01 00:22:40;;;;;;;37.28;26.48;;;;;;;;;;5049270;28;20028;-55
2022/01/01 00:25:06;;;;;;;37.80;22.88;;;;;;;;;;5052351;28;20113;-55
2022/01/01 00:27:32;;;;;;;35.58;25.45;;;;;;;;;;5054633;28;20029;-56
2022/01/01 00:29:57;;;;;;;42.17;26.00;;;;;;;;;;5053014;28;20033;-56
2022/01/01 00:32:22;;;;;;;39.97;21.67;;;;;;;;;;5053873;28;20017;-56
2022/01/01 00:34:50;;;;;;;36.60;21.55;;;;;;;;;;5068497;28;20447;-56
2022/01/01 00:37:15;;;;;;;50.88;25.80;;;;;;;;;;5050468;28;20476;-56
2022/01/01 00:39:40;;;;;;;41.85;23.83;;;;;;;;;;5054502;28;20047;-56
2022/01/01 00:42:06;;;;;;;46.07;26.73;;;;;;;;;;5069491;28;20493;-56
2022/01/01 00:44:32;;;;;;;43.47;24.48;;;;;;;;;;5055755;28;20462;-56
2022/01/01 00:46:57;;;;;;;62.42;28.17;;;;;;;;;;5049108;28;20021;-56
2022/01/01 00:49:23;;;;;;;48.58;28.48;;;;;;;;;;5050695;28;20036;-56
2022/01/01 00:51:48;;;;;;;53.10;30.52;;;;;;;;;;5069312;28;20024;-56
2022/01/01 00:54:13;;;;;;;54.55;33.00;;;;;;;;;;5056584;28;20417;-56
2022/01/01 00:56:38;;;;;;;64.10;33.67;;;;;;;;;;5070111;28;20051;-56
2022/01/01 00:59:03;;;;;;;92.53;41.33;;;;;;;;;;5066325;28;20048;-57
2022/01/01 01:01:28;;;;;;;57.17;33.57;;;;;;;;;;5064547;28;20492;-56
2022/01/01 01:03:53;;;;;;;54.28;33.78;;;;;;;;;;5066517;28;20527;-56
2022/01/01 01:06:19;;;;;;;58.83;33.85;;;;;;;;;;5053314;28;20024;-56
2022/01/01 01:08:44;;;;;;;61.65;38.15;;;;;;;;;;5052181;28;20031;-56
2022/01/01 01:11:09;;;;;;;56.30;39.33;;;;;;;;;;5053361;28;20104;-56
2022/01/01 01:13:35;;;;;;;70.80;39.45;;;;;;;;;;5052566;28;20017;-56
2022/01/01 01:16:00;;;;;;;52.33;37.35;;;;;;;;;;5051818;28;20037;-55
2022/01/01 01:18:25;;;;;;;64.25;39.63;;;;;;;;;;5067058;28;20029;-56
2022/01/01 01:20:50;;;;;;;59.10;39.13;;;;;;;;;;5060510;28;20040;-56
2022/01/01 01:23:16;;;;;;;62.58;45.75;;;;;;;;;;5053849;28;20013;-56
2022/01/01 01:25:41;;;;;;;66.60;45.78;;;;;;;;;;5052106;28;20494;-56
2022/01/01 01:28:10;;;;;;;70.70;48.60;;;;;;;;;;5068721;28;20024;-56
2022/01/01 01:30:36;;;;;;;70.10;49.00;;;;;;;;;;5064498;28;20037;-56
2022/01/01 01:33:02;;;;;;;81.68;54.45;;;;;;;;;;5073067;28;20268;-56
2022/01/01 01:35:27;;;;;;;76.13;49.92;;;;;;;;;;5068980;28;20033;-56
2022/01/01 01:37:53;;;;;;;93.47;53.13;;;;;;;;;;5054953;28;20476;-56
2022/01/01 01:40:18;;;;;;;84.97;54.10;;;;;;;;;;5050524;28;20503;-57
2022/01/01 01:42:44;;;;;;;84.20;55.50;;;;;;;;;;5048486;28;20435;-59
2022/01/01 01:45:15;;;;;;;71.43;54.25;;;;;;;;;;5051677;28;20025;-60
2022/01/01 01:47:41;;;;;;;88.22;55.42;;;;;;;;;;5058471;28;20476;-59
2022/01/01 01:50:07;;;;;;;80.10;55.08;;;;;;;;;;5051857;28;20094;-60
2022/01/01 01:52:35;;;;;;;95.35;58.30;;;;;;;;;;5052798;28;20554;-60
2022/01/01 01:55:01;;;;;;;101.38;58.70;;;;;;;;;;5060099;28;20115;-59
2022/01/01 01:57:27;;;;;;;92.53;53.92;;;;;;;;;;5064593;28;20017;-60
2022/01/01 01:59:52;;;;;;;81.15;55.13;;;;;;;;;;5071946;28;20353;-60
2022/01/01 02:02:18;;;;;;;73.10;49.47;;;;;;;;;;5073268;28;20042;-59
2022/01/01 02:04:43;;;;;;;89.10;47.87;;;;;;;;;;5071346;28;20032;-59
2022/01/01 02:07:08;;;;;;;77.93;45.80;;;;;;;;;;5068975;28;20100;-59
2022/01/01 02:09:34;;;;;;;79.50;47.13;;;;;;;;;;5066976;28;20504;-60
2022/01/01 02:12:01;;;;;;;76.43;50.40;;;;;;;;;;5052236;28;20037;-59
2022/01/01 02:14:50;;;;;;;69.70;47.67;;;;;;;;;;5052760;28;20067;-60
2022/01/01 02:17:15;;;;;;;94.72;54.47;;;;;;;;;;5058768;28;20049;-60
2022/01/01 02:20:00;;;;;;;81.25;49.38;;;;;;;;;;5050890;28;20044;-59
2022/01/01 02:22:25;;;;;;;87.15;47.47;;;;;;;;;;5058292;28;20029;-59
2022/01/01 02:24:50;;;;;;;90.53;48.08;;;;;;;;;;5071462;28;20107;-60
2022/01/01 02:27:17;;;;;;;77.87;46.80;;;;;;;;;;5063640;28;20019;-59
2022/01/01 02:29:42;;;;;;;79.40;48.20;;;;;;;;;;5070983;28;20451;-60
2022/01/01 02:32:08;;;;;;;77.22;47.88;;;;;;;;;;5072455;28;20085;-60
2022/01/01 02:34:35;;;;;;;91.88;60.47;;;;;;;;;;5058053;28;20432;-59
2022/01/01 02:37:01;;;;;;;88.55;59.28;;;;;;;;;;5062138;28;20016;-59
2022/01/01 02:39:26;;;;;;;104.22;62.53;;;;;;;;;;5070782;28;20040;-60
2022/01/01 02:41:54;;;;;;;97.10;64.00;;;;;;;;;;5068439;28;20017;-60
2022/01/01 02:44:23;;;;;;;101.85;65.00;;;;;;;;;;5051030;28;20577;-59
2022/01/01 02:46:48;;;;;;;94.43;65.82;;;;;;;;;;5059319;28;20035;-60
2022/01/01 02:49:13;;;;;;;89.07;66.47;;;;;;;;;;5050606;28;20037;-59
2022/01/01 02:51:38;;;;;;;96.15;64.88;;;;;;;;;;5069155;28;20060;-60
2022/01/01 02:54:03;;;;;;;93.90;65.18;;;;;;;;;;5067392;28;20051;-60
2022/01/01 02:56:28;;;;;;;103.22;68.60;;;;;;;;;;5056266;28;20027;-59
2022/01/01 02:58:54;;;;;;;91.75;63.05;;;;;;;;;;5070308;28;20056;-59
2022/01/01 03:01:19;;;;;;;100.93;65.57;;;;;;;;;;5070458;28;20013;-59
2022/01/01 03:03:46;;;;;;;93.97;62.10;;;;;;;;;;5050432;28;20025;-59
2022/01/01 03:06:12;;;;;;;90.68;60.03;;;;;;;;;;5052077;28;20023;-59
2022/01/01 03:08:37;;;;;;;98.07;60.55;;;;;;;;;;5060342;28;20028;-60
2022/01/01 03:11:02;;;;;;;102.90;59.70;;;;;;;;;;5069901;28;20557;-60
2022/01/01 03:13:30;;;;;;;84.72;61.45;;;;;;;;;;5053202;28;20035;-60
2022/01/01 03:15:55;;;;;;;91.53;58.88;;;;;;;;;;5060797;28;20132;-60
2022/01/01 03:18:21;;;;;;;91.80;60.07;;;;;;;;;;5062288;28;20076;-60
2022/01/01 03:20:46;;;;;;;86.13;55.42;;;;;;;;;;5050015;28;20488;-60
2022/01/01 03:23:11;;;;;;;88.60;56.83;;;;;;;;;;5067016;28;20021;-60
2022/01/01 03:25:36;;;;;;;81.80;56.13;;;;;;;;;;5052523;28;20044;-61
2022/01/01 03:28:01;;;;;;;93.20;59.28;;;;;;;;;;5051464;28;20056;-60
2022/01/01 03:30:26;;;;;;;81.07;54.70;;;;;;;;;;5049875;28;20051;-61
2022/01/01 03:32:52;;;;;;;89.43;57.03;;;;;;;;;;5063292;28;20531;-60
2022/01/01 03:35:17;;;;;;;88.75;52.47;;;;;;;;;;5069746;28;20032;-61
2022/01/01 03:37:42;;;;;;;82.60;54.28;;;;;;;;;;5059576;28;20017;-61
2022/01/01 03:40:07;;;;;;;85.40;50.45;;;;;;;;;;5049882;28;20499;-61
2022/01/01 03:42:33;;;;;;;78.90;53.75;;;;;;;;;;5060681;28;20031;-61
2022/01/01 03:44:58;;;;;;;82.35;52.10;;;;;;;;;;5066808;28;20033;-60
2022/01/01 03:47:23;;;;;;;87.03;53.65;;;;;;;;;;5051295;28;20021;-60
2022/01/01 03:49:49;;;;;;;77.03;48.25;;;;;;;;;;5049250;28;20033;-61
2022/01/01 03:52:15;;;;;;;76.03;46.15;;;;;;;;;;5057841;28;20024;-60
2022/01/01 03:54:40;;;;;;;68.32;48.75;;;;;;;;;;5067683;28;20032;-60
2022/01/01 03:57:05;;;;;;;77.50;49.37;;;;;;;;;;5071045;28;20029;-60
2022/01/01 03:59:30;;;;;;;63.88;47.03;;;;;;;;;;5065712;28;20467;-60
2022/01/01 04:01:55;;;;;;;85.30;51.00;;;;;;;;;;5052853;28;20020;-60
2022/01/01 04:04:22;;;;;;;66.47;44.77;;;;;;;;;;5049472;28;20043;-57
2022/01/01 04:06:48;;;;;;;80.20;48.28;;;;;;;;;;5051097;28;20383;-57
2022/01/01 04:09:14;;;;;;;70.35;48.78;;;;;;;;;;5062735;28;20115;-59
2022/01/01 04:11:39;;;;;;;75.07;46.28;;;;;;;;;;5068336;28;20103;-60
2022/01/01 04:14:04;;;;;;;67.18;42.70;;;;;;;;;;5049700;28;20116;-59
2022/01/01 04:16:30;;;;;;;71.53;42.07;;;;;;;;;;5064671;28;20047;-60
2022/01/01 04:18:55;;;;;;;77.57;47.40;;;;;;;;;;5055045;28;20107;-60
2022/01/01 04:21:20;;;;;;;79.60;48.33;;;;;;;;;;5050902;28;20832;-60
2022/01/01 04:23:45;;;;;;;59.75;44.25;;;;;;;;;;5049432;28;20423;-59
2022/01/01 04:26:10;;;;;;;67.45;43.03;;;;;;;;;;5051445;28;20701;-59
2022/01/01 04:28:36;;;;;;;79.43;43.38;;;;;;;;;;5068478;28;20025;-60
2022/01/01 04:31:01;;;;;;;90.68;49.38;;;;;;;;;;5064786;28;20037;-60
2022/01/01 04:33:27;;;;;;;69.88;43.20;;;;;;;;;;5074012;28;20029;-60
2022/01/01 04:35:52;;;;;;;72.00;45.70;;;;;;;;;;5055206;28;20120;-59
2022/01/01 04:41:01;;;;;;;71.07;49.42;;;;;;;;;;5072737;28;20450;-60
2022/01/01 04:43:26;;;;;;;80.32;47.45;;;;;;;;;;5074468;28;20021;-60
2022/01/01 04:45:51;;;;;;;68.88;42.47;;;;;;;;;;5063127;28;20056;-59
2022/01/01 04:48:16;;;;;;;67.93;42.00;;;;;;;;;;5054589;28;20031;-59
2022/01/01 04:50:42;;;;;;;75.28;44.42;;;;;;;;;;5069754;28;20036;-59
2022/01/01 04:53:07;;;;;;;72.25;46.35;;;;;;;;;;5064274;28;20036;-60
2022/01/01 04:55:33;;;;;;;80.13;47.70;;;;;;;;;;5053484;28;20095;-59
2022/01/01 04:57:58;;;;;;;81.75;48.47;;;;;;;;;;5067053;28;20025;-60
2022/01/01 05:00:23;;;;;;;73.55;43.30;;;;;;;;;;5052885;28;20124;-60
2022/01/01 05:02:48;;;;;;;78.57;46.38;;;;;;;;;;5053807;28;20028;-60
2022/01/01 05:05:13;;;;;;;82.63;48.90;;;;;;;;;;5053112;28;20500;-59
2022/01/01 05:07:38;;;;;;;72.07;47.05;;;;;;;;;;5054937;28;20053;-59
2022/01/01 05:10:05;;;;;;;75.93;47.17;;;;;;;;;;5072388;28;20036;-60
2022/01/01 05:12:30;;;;;;;90.85;54.22;;;;;;;;;;5067413;28;20476;-59
2022/01/01 05:14:55;;;;;;;76.83;50.97;;;;;;;;;;5054523;28;20120;-59
2022/01/01 05:17:20;;;;;;;88.03;55.23;;;;;;;;;;5071534;28;20049;-59
2022/01/01 05:19:45;;;;;;;89.60;61.47;;;;;;;;;;5072384;28;20060;-59
2022/01/01 05:22:11;;;;;;;93.95;59.50;;;;;;;;;;5074087;28;20464;-59
2022/01/01 05:24:36;;;;;;;99.00;58.45;;;;;;;;;;5053509;28;20048;-59
2022/01/01 05:27:01;;;;;;;96.57;64.90;;;;;;;;;;5055042;28;20028;-59
2022/01/01 05:29:26;;;;;;;105.55;63.50;;;;;;;;;;5052298;28;20518;-59
2022/01/01 05:31:52;;;;;;;105.07;63.85;;;;;;;;;;5073030;28;20355;-59
2022/01/01 05:34:17;;;;;;;101.90;57.08;;;;;;;;;;5071380;28;20508;-59
2022/01/01 05:36:42;;;;;;;85.97;50.33;;;;;;;;;;5054109;28;20432;-59
2022/01/01 05:39:08;;;;;;;89.27;54.53;;;;;;;;;;5051986;28;20045;-59
2022/01/01 05:41:33;;;;;;;79.60;50.78;;;;;;;;;;5070263;28;20507;-59
2022/01/01 05:43:58;;;;;;;82.55;48.33;;;;;;;;;;5072077;28;20647;-59
2022/01/01 05:46:24;;;;;;;70.90;45.37;;;;;;;;;;5060211;28;20025;-59
2022/01/01 05:48:49;;;;;;;67.93;43.22;;;;;;;;;;5052130;28;20021;-59
2022/01/01 05:51:14;;;;;;;83.80;44.13;;;;;;;;;;5062302;28;20066;-59
2022/01/01 05:53:40;;;;;;;68.65;39.75;;;;;;;;;;5072501;28;20021;-60
2022/01/01 05:56:05;;;;;;;67.35;39.75;;;;;;;;;;5063862;28;20029;-60
2022/01/01 05:58:31;;;;;;;58.22;38.05;;;;;;;;;;5072864;28;20017;-60
2022/01/01 06:00:57;;;;;;;63.47;35.05;;;;;;;;;;5052730;28;20111;-60
2022/01/01 06:03:22;;;;;;;54.92;35.35;;;;;;;;;;5053236;28;20052;-59
2022/01/01 06:05:51;;;;;;;58.10;35.33;;;;;;;;;;5053755;28;20044;-58
2022/01/01 06:08:16;;;;;;;54.17;33.97;;;;;;;;;;5067635;28;20021;-58
2022/01/01 06:10:42;;;;;;;54.10;34.30;;;;;;;;;;5051567;28;20051;-58
2022/01/01 06:13:07;;;;;;;58.38;32.92;;;;;;;;;;5055379;28;20037;-58
2022/01/01 06:15:33;;;;;;;46.58;30.38;;;;;;;;;;5051249;28;20040;-60
2022/01/01 06:17:58;;;;;;;55.72;29.20;;;;;;;;;;5072472;28;20049;-60
2022/01/01 06:20:23;;;;;;;54.28;31.90;;;;;;;;;;5071413;28;20048;-60
2022/01/01 06:22:48;;;;;;;70.63;30.73;;;;;;;;;;5071057;28;20081;-60
2022/01/01 06:25:13;;;;;;;54.90;30.20;;;;;;;;;;5063755;28;20463;-60
2022/01/01 06:27:38;;;;;;;58.50;27.73;;;;;;;;;;5054793;28;20455;-60
2022/01/01 06:30:04;;;;;;;48.90;27.60;;;;;;;;;;5051549;28;20037;-60
2022/01/01 06:32:32;;;;;;;48.55;29.52;;;;;;;;;;5063760;28;20837;-60
2022/01/01 06:34:57;;;;;;;51.75;24.80;;;;;;;;;;5070847;28;20047;-60
2022/01/01 06:37:23;;;;;;;41.65;25.33;;;;;;;;;;5056930;28;20024;-60
2022/01/01 06:39:49;;;;;;;51.00;25.97;;;;;;;;;;5051438;28;20108;-60
2022/01/01 06:42:14;;;;;;;46.85;23.83;;;;;;;;;;5054186;28;20100;-60
2022/01/01 06:44:39;;;;;;;43.63;24.10;;;;;;;;;;5055095;28;20460;-60
2022/01/01 06:47:04;;;;;;;43.42;23.90;;;;;;;;;;5061390;28;20459;-59
2022/01/01 06:49:29;;;;;;;52.40;22.80;;;;;;;;;;5049253;28;20399;-60
2022/01/01 06:51:55;;;;;;;52.58;25.60;;;;;;;;;;5050026;28;20440;-60
2022/01/01 06:54:20;;;;;;;48.65;25.02;;;;;;;;;;5050048;28;20123;-58
2022/01/01 06:56:45;;;;;;;39.15;21.42;;;;;;;;;;5052688;28;20025;-58
2022/01/01 06:59:10;;;;;;;42.08;22.40;;;;;;;;;;5049959;28;20500;-58
2022/01/01 07:01:36;;;;;;;38.93;20.47;;;;;;;;;;5051078;28;20021;-57
2022/01/01 07:04:03;;;;;;;39.65;23.13;;;;;;;;;;5050399;28;20017;-58
2022/01/01 07:06:28;;;;;;;40.97;22.23;;;;;;;;;;5049570;28;20057;-58
2022/01/01 07:08:54;;;;;;;54.60;21.38;;;;;;;;;;5047167;28;20078;-58
2022/01/01 07:11:19;;;;;;;54.87;23.73;;;;;;;;;;5051384;28;20015;-58
2022/01/01 07:13:44;;;;;;;46.90;20.40;;;;;;;;;;5049823;28;20428;-58
2022/01/01 07:16:09;;;;;;;39.47;19.85;;;;;;;;;;5048313;28;20091;-58
2022/01/01 07:18:34;;;;;;;39.95;20.20;;;;;;;;;;5048447;28;20027;-58
2022/01/01 07:20:59;;;;;;;31.67;19.43;;;;;;;;;;5049534;28;20032;-58
2022/01/01 07:23:24;;;;;;;53.42;23.60;;;;;;;;;;5049962;28;20021;-58
2022/01/01 07:25:50;;;;;;;34.30;18.47;;;;;;;;;;5046711;28;20399;-58
2022/01/01 07:28:16;;;;;;;28.83;16.47;;;;;;;;;;5052542;28;20074;-58
2022/01/01 07:30:42;;;;;;;37.47;18.30;;;;;;;;;;5049029;28;20044;-58
2022/01/01 07:33:07;;;;;;;33.03;16.65;;;;;;;;;;5053076;28;20414;-58
2022/01/01 07:35:36;;;;;;;33.40;20.57;;;;;;;;;;5048599;28;20062;-58
2022/01/01 07:38:02;;;;;;;29.52;16.67;;;;;;;;;;5054501;28;20444;-57
2022/01/01 07:40:28;;;;;;;30.27;14.52;;;;;;;;;;5049059;28;20044;-58
2022/01/01 07:42:54;;;;;;;21.65;14.50;;;;;;;;;;5048430;28;20506;-58
2022/01/01 07:45:19;;;;;;;19.45;13.65;;;;;;;;;;5047077;28;20049;-58
2022/01/01 07:47:44;;;;;;;36.92;15.63;;;;;;;;;;5048490;28;20407;-58
2022/01/01 07:50:10;;;;;;;33.70;15.70;;;;;;;;;;5049385;28;20036;-59
2022/01/01 07:52:35;;;;;;;27.05;15.23;;;;;;;;;;5050684;28;20024;-56
2022/01/01 07:55:00;;;;;;;24.42;14.77;;;;;;;;;;5049121;28;20043;-56
2022/01/01 07:57:26;;;;;;;29.40;14.95;;;;;;;;;;5047367;28;20104;-58
2022/01/01 07:59:51;;;;;;;22.85;13.82;;;;;;;;;;5048739;28;20495;-56
2022/01/01 08:02:16;;;;;;;34.22;15.90;;;;;;;;;;5052226;28;20018;-56
2022/01/01 08:04:41;;;;;;;24.23;16.50;;;;;;;;;;5048893;28;20040;-56
2022/01/01 08:07:06;;;;;;;23.97;13.87;;;;;;;;;;5050022;28;20541;-56
2022/01/01 08:09:31;;;;;;;31.50;14.63;;;;;;;;;;5043347;28;20044;-56
2022/01/01 08:11:57;;;;;;;26.02;10.32;;;;;;;;;;5047704;28;20031;-56
2022/01/01 08:14:22;;;;;;;24.27;14.35;;;;;;;;;;5048475;28;20086;-55
2022/01/01 08:16:54;;;;;;;26.77;14.43;;;;;;;;;;5050059;28;20044;-56
2022/01/01 08:19:19;;;;;;;28.17;14.65;;;;;;;;;;5045643;28;20116;-56
2022/01/01 08:21:44;;;;;;;24.30;13.23;;;;;;;;;;5058403;28;20520;-56
2022/01/01 08:24:10;;;;;;;20.07;11.77;;;;;;;;;;5048474;28;20508;-56
2022/01/01 08:26:35;;;;;;;19.50;12.13;;;;;;;;;;5047774;28;20036;-55
2022/01/01 08:29:00;;;;;;;28.05;12.93;;;;;;;;;;5048187;28;20079;-55
2022/01/01 08:31:25;;;;;;;29.63;13.48;;;;;;;;;;5049966;28;20020;-55
2022/01/01 08:33:50;;;;;;;22.98;12.07;;;;;;;;;;5045931;28;20013;-55
2022/01/01 08:36:15;;;;;;;26.98;12.02;;;;;;;;;;5049766;28;20465;-55
2022/01/01 08:38:40;;;;;;;19.80;13.33;;;;;;;;;;5047116;28;20020;-55
2022/01/01 08:41:05;;;;;;;25.00;11.65;;;;;;;;;;5050029;28;20090;-56
2022/01/01 08:43:31;;;;;;;23.60;14.23;;;;;;;;;;5057520;28;20384;-56
2022/01/01 08:45:56;;;;;;;26.88;13.85;;;;;;;;;;5049385;28;20104;-55
2022/01/01 08:48:21;;;;;;;25.53;14.53;;;;;;;;;;5050285;28;20028;-55
2022/01/01 08:50:46;;;;;;;21.57;12.60;;;;;;;;;;5051558;28;20505;-55
2022/01/01 08:53:11;;;;;;;25.27;11.95;;;;;;;;;;5051611;28;20501;-55
2022/01/01 08:55:36;;;;;;;18.70;12.35;;;;;;;;;;5050676;28;20456;-55
2022/01/01 08:58:02;;;;;;;25.63;12.65;;;;;;;;;;5044375;28;20087;-55
2022/01/01 09:00:27;;;;;;;19.00;11.53;;;;;;;;;;5041932;28;20047;-55
2022/01/01 09:02:52;;;;;;;21.90;11.73;;;;;;;;;;5053388;28;20025;-55
2022/01/01 09:05:17;;;;;;;20.43;13.23;;;;;;;;;;5049861;28;20815;-55
2022/01/01 09:07:42;;;;;;;25.17;12.17;;;;;;;;;;5052938;28;20538;-55
2022/01/01 09:10:08;;;;;;;25.08;12.73;;;;;;;;;;5045669;28;20566;-55
2022/01/01 09:12:33;;;;;;;20.17;11.90;;;;;;;;;;5050033;28;20024;-55
2022/01/01 09:14:58;;;;;;;19.48;10.43;;;;;;;;;;5053120;28;20037;-55
2022/01/01 09:17:23;;;;;;;20.50;12.13;;;;;;;;;;5059556;28;20049;-55
2022/01/01 09:19:48;;;;;;;27.70;10.73;;;;;;;;;;5057344;28;20462;-55
2022/01/01 09:22:14;;;;;;;30.43;12.10;;;;;;;;;;5057227;28;20045;-55
2022/01/01 09:24:39;;;;;;;28.10;10.93;;;;;;;;;;5052302;28;20451;-55
2022/01/01 09:27:04;;;;;;;17.23;10.63;;;;;;;;;;5061607;28;20522;-55
2022/01/01 09:29:29;;;;;;;21.83;11.48;;;;;;;;;;5062201;28;20037;-55
2022/01/01 09:31:54;;;;;;;22.48;8.85;;;;;;;;;;5071068;28;20024;-55
2022/01/01 09:34:20;;;;;;;19.65;9.25;;;;;;;;;;5064858;28;20565;-55
2022/01/01 09:36:47;;;;;;;19.20;9.65;;;;;;;;;;5064484;28;20061;-55
2022/01/01 09:39:12;;;;;;;20.33;10.05;;;;;;;;;;5059772;28;20129;-55
2022/01/01 09:41:42;;;;;;;19.75;9.00;;;;;;;;;;5052109;28;20547;-55
2022/01/01 09:44:11;;;;;;;22.20;9.93;;;;;;;;;;5055007;28;20043;-55
2022/01/01 09:46:37;;;;;;;16.45;9.93;;;;;;;;;;5044773;28;21673;-56
2022/01/01 09:49:02;;;;;;;25.48;9.88;;;;;;;;;;5051896;28;20100;-55
2022/01/01 09:51:27;;;;;;;16.17;9.57;;;;;;;;;;5055491;28;20070;-55
2022/01/01 09:53:53;;;;;;;21.58;8.88;;;;;;;;;;5064001;28;20017;-55
2022/01/01 09:56:18;;;;;;;17.33;8.77;;;;;;;;;;5056515;28;20025;-56
2022/01/01 09:58:43;;;;;;;11.55;7.20;;;;;;;;;;5049196;28;20013;-56
2022/01/01 10:01:08;;;;;;;20.05;9.15;;;;;;;;;;5049144;28;20048;-56
2022/01/01 10:03:41;;;;;;;23.65;10.27;;;;;;;;;;5051460;28;20024;-56
2022/01/01 10:06:12;;;;;;;21.27;8.35;;;;;;;;;;5046541;28;20064;-56
2022/01/01 10:08:38;;;;;;;12.82;8.45;;;;;;;;;;5053493;28;20017;-56
2022/01/01 10:11:03;;;;;;;16.58;7.43;;;;;;;;;;5051630;28;20091;-56
2022/01/01 10:13:33;;;;;;;16.80;9.23;;;;;;;;;;5050674;28;20505;-56
2022/01/01 10:16:00;;;;;;;11.82;8.70;;;;;;;;;;5050039;28;20041;-55
2022/01/01 10:18:29;;;;;;;13.73;7.50;;;;;;;;;;5062757;28;20029;-55
2022/01/01 10:21:00;;;;;;;12.82;7.47;;;;;;;;;;5049642;28;20048;-55
2022/01/01 10:23:28;;;;;;;18.20;8.95;;;;;;;;;;5061280;28;20519;-55
2022/01/01 10:28:52;;;;;;;22.80;9.45;;;;;;;;;;5053404;28;20396;-55
2022/01/01 10:31:18;;;;;;;16.08;8.40;;;;;;;;;;5048884;28;20029;-56
2022/01/01 10:33:46;;;;;;;13.85;7.75;;;;;;;;;;5048636;28;20021;-55
2022/01/01 10:36:13;;;;;;;10.95;6.63;;;;;;;;;;5048721;28;20500;-56
2022/01/01 10:38:38;;;;;;;18.20;9.68;;;;;;;;;;5051639;28;20020;-55
2022/01/01 10:41:05;;;;;;;11.10;6.20;;;;;;;;;;5050951;28;20048;-55
2022/01/01 10:43:36;;;;;;;10.45;7.82;;;;;;;;;;5058112;28;20025;-55
2022/01/01 10:46:03;;;;;;;15.98;6.85;;;;;;;;;;5052671;28;20050;-55
2022/01/01 10:48:41;;;;;;;14.80;7.28;;;;;;;;;;5071184;28;20553;-55
2022/01/01 10:51:07;;;;;;;12.73;6.68;;;;;;;;;;5048858;28;20071;-55
2022/01/01 10:53:34;;;;;;;13.38;7.40;;;;;;;;;;5051451;28;20039;-55
2022/01/01 10:56:00;;;;;;;11.98;6.57;;;;;;;;;;5049204;28;20417;-55
2022/01/01 10:58:27;;;;;;;13.05;7.20;;;;;;;;;;5053069;28;20020;-55
2022/01/01 11:00:58;;;;;;;14.57;5.97;;;;;;;;;;5048118;28;20400;-56
2022/01/01 11:03:24;;;;;;;18.38;6.63;;;;;;;;;;5050786;28;20085;-55
2022/01/01 11:05:51;;;;;;;14.60;6.20;;;;;;;;;;5047595;28;20563;-56
2022/01/01 11:08:16;;;;;;;13.90;6.85;;;;;;;;;;5050593;28;20029;-55
2022/01/01 11:10:42;;;;;;;11.52;5.70;;;;;;;;;;5051253;28;20101;-55
2022/01/01 11:13:08;;;;;;;13.80;7.80;;;;;;;;;;5054232;28;20028;-55
2022/01/01 11:15:33;;;;;;;15.70;7.93;;;;;;;;;;5049295;28;20033;-56
2022/01/01 11:17:59;;;;;;;14.77;6.25;;;;;;;;;;5047561;28;20057;-55
2022/01/01 11:20:25;;;;;;;11.80;6.28;;;;;;;;;;5048726;28;20067;-55
2022/01/01 11:22:51;;;;;;;11.02;6.65;;;;;;;;;;5050545;28;20045;-55
2022/01/01 11:25:19;;;;;;;14.60;6.47;;;;;;;;;;5047892;28;20044;-55
2022/01/01 11:27:45;;;;;;;18.10;6.38;;;;;;;;;;5063734;28;20427;-55
2022/01/01 11:30:11;;;;;;;13.18;6.45;;;;;;;;;;5069434;28;20056;-55
2022/01/01 11:32:37;;;;;;;16.15;7.32;;;;;;;;;;5054473;28;20032;-55
2022/01/01 11:35:03;;;;;;;13.63;7.60;;;;;;;;;;5050942;28;20075;-56
2022/01/01 11:37:43;;;;;;;10.43;7.22;;;;;;;;;;5049855;28;20053;-55
2022/01/01 11:40:08;;;;;;;16.90;6.75;;;;;;;;;;5046248;28;20045;-55
2022/01/01 11:42:42;;;;;;;10.65;7.00;;;;;;;;;;5047375;28;20083;-55
2022/01/01 11:45:07;;;;;;;21.20;6.43;;;;;;;;;;5046376;28;20496;-55
2022/01/01 11:47:33;;;;;;;13.23;6.90;;;;;;;;;;5051686;28;20035;-55
2022/01/01 11:50:00;;;;;;;7.35;5.68;;;;;;;;;;5045413;28;20381;-55
2022/01/01 11:52:36;;;;;;;12.93;6.65;;;;;;;;;;5045371;28;20032;-56
2022/01/01 11:55:03;;;;;;;28.58;10.02;;;;;;;;;;5047687;28;20025;-55
2022/01/01 11:57:30;;;;;;;14.73;6.50;;;;;;;;;;5049188;28;20123;-55
2022/01/01 12:00:01;;;;;;;9.23;6.90;;;;;;;;;;5048022;28;20039;-56
2022/01/01 12:02:26;;;;;;;8.38;6.50;;;;;;;;;;5058535;28;20419;-56
2022/01/01 12:04:51;;;;;;;13.60;6.90;;;;;;;;;;5061502;28;20401;-55
2022/01/01 12:07:20;;;;;;;10.73;6.78;;;;;;;;;;5048719;28;20530;-55
2022/01/01 12:10:06;;;;;;;15.27;7.47;;;;;;;;;;5046723;28;20098;-55
2022/01/01 12:12:44;;;;;;;16.92;7.32;;;;;;;;;;5047304;28;20017;-55
2022/01/01 12:15:18;;;;;;;13.60;8.82;;;;;;;;;;5055986;28;20060;-55
2022/01/01 12:17:44;;;;;;;13.73;7.15;;;;;;;;;;5042250;28;20682;-55
2022/01/01 12:20:10;;;;;;;14.25;7.82;;;;;;;;;;5039515;28;20072;-55
2022/01/01 12:22:37;;;;;;;10.35;6.07;;;;;;;;;;5049074;28;20020;-55
2022/01/01 12:25:02;;;;;;;8.75;6.68;;;;;;;;;;5046268;28;20033;-55
2022/01/01 12:27:39;;;;;;;15.95;7.13;;;;;;;;;;5048297;28;20025;-55
2022/01/01 12:30:04;;;;;;;9.77;6.20;;;;;;;;;;5052547;28;20032;-55
2022/01/01 12:32:37;;;;;;;12.77;6.70;;;;;;;;;;5065746;28;20094;-55
2022/01/01 12:35:05;;;;;;;12.40;7.93;;;;;;;;;;5045604;28;20492;-56
2022/01/01 12:37:37;;;;;;;14.88;7.15;;;;;;;;;;5030103;28;20018;-55
2022/01/01 12:40:05;;;;;;;10.15;6.63;;;;;;;;;;5039910;28;20569;-56
2022/01/01 12:42:30;;;;;;;;;;;;;;;;;;5058304;28;20031;-56
2022/01/01 12:45:00;;;;;;;8.57;6.43;;;;;;;;;;5067160;28;19909;-56
2022/01/01 12:47:27;;;;;;;12.13;6.45;;;;;;;;;;5064200;28;20016;-56
2022/01/01 12:49:52;;;;;;;15.35;6.80;;;;;;;;;;5072420;28;20040;-56
2022/01/01 12:52:22;;;;;;;14.25;6.55;;;;;;;;;;5072992;28;20035;-55
2022/01/01 12:54:49;;;;;;;13.38;7.50;;;;;;;;;;5054247;28;20048;-56
2022/01/01 12:57:16;;;;;;;17.50;7.70;;;;;;;;;;5056137;28;20025;-56
2022/01/01 12:59:42;;;;;;;16.40;9.25;;;;;;;;;;5054940;28;20041;-64
2022/01/01 13:02:08;;;;;;;10.45;6.68;;;;;;;;;;5054806;28;20037;-56
2022/01/01 13:04:34;;;;;;;16.30;8.60;;;;;;;;;;5051336;28;20029;-56
2022/01/01 13:06:59;;;;;;;11.20;7.28;;;;;;;;;;5056320;28;20028;-56
2022/01/01 13:09:27;;;;;;;13.97;6.90;;;;;;;;;;5049075;28;20099;-55
2022/01/01 13:11:57;;;;;;;8.70;7.68;;;;;;;;;;5059660;28;20814;-56
2022/01/01 13:14:22;;;;;;;10.75;7.22;;;;;;;;;;5051780;28;20043;-56
2022/01/01 13:16:47;;;;;;;12.90;7.10;;;;;;;;;;5049396;28;20037;-55
2022/01/01 13:19:12;;;;;;;9.57;6.67;;;;;;;;;;5050977;28;20459;-56
2022/01/01 13:21:37;;;;;;;13.52;6.95;;;;;;;;;;5052446;28;20524;-56
2022/01/01 13:24:03;;;;;;;17.38;6.65;;;;;;;;;;5051975;28;20036;-55
2022/01/01 13:26:28;;;;;;;14.98;7.70;;;;;;;;;;5052872;28;20024;-56
2022/01/01 13:28:54;;;;;;;14.97;8.07;;;;;;;;;;5051820;28;20075;-55
2022/01/01 13:31:20;;;;;;;9.27;7.13;;;;;;;;;;5053411;28;20035;-55
2022/01/01 13:33:47;;;;;;;10.60;7.22;;;;;;;;;;5051387;28;20786;-55
2022/01/01 13:36:26;;;;;;;8.48;5.80;;;;;;;;;;5053397;28;20013;-55
2022/01/01 13:38:53;;;;;;;14.18;8.23;;;;;;;;;;5071933;28;20032;-55
2022/01/01 13:41:18;;;;;;;7.50;4.85;;;;;;;;;;5072831;28;20025;-56
2022/01/01 13:43:43;;;;;;;8.82;6.63;;;;;;;;;;5065259;28;20099;-56
2022/01/01 13:46:25;;;;;;;11.82;6.55;;;;;;;;;;5051572;28;20029;-56
2022/01/01 13:48:50;;;;;;;13.05;7.72;;;;;;;;;;5051035;28;20021;-55
2022/01/01 13:51:17;;;;;;;13.70;7.18;;;;;;;;;;5053008;28;20028;-56
2022/01/01 13:53:43;;;;;;;7.82;5.32;;;;;;;;;;5057753;28;20012;-56
2022/01/01 13:56:10;;;;;;;8.00;6.65;;;;;;;;;;5059221;28;20044;-56
2022/01/01 13:58:42;;;;;;;8.40;6.50;;;;;;;;;;5052346;28;20110;-56
2022/01/01 14:01:07;;;;;;;11.10;7.00;;;;;;;;;;5051045;28;20045;-55
2022/01/01 14:03:33;;;;;;;12.38;6.82;;;;;;;;;;5052431;28;20400;-56
2022/01/01 14:05:58;;;;;;;12.37;8.03;;;;;;;;;;5061059;28;20070;-55
2022/01/01 14:08:25;;;;;;;7.18;5.93;;;;;;;;;;5073098;28;20024;-55
2022/01/01 14:10:54;;;;;;;14.95;5.82;;;;;;;;;;5070847;28;20549;-56
2022/01/01 14:13:33;;;;;;;7.88;5.35;;;;;;;;;;5073052;28;20024;-55
2022/01/01 14:15:59;;;;;;;7.63;5.90;;;;;;;;;;5071243;28;20029;-55
2022/01/01 14:18:28;;;;;;;7.40;6.30;;;;;;;;;;5069930;28;20031;-56
2022/01/01 14:20:54;;;;;;;8.23;5.50;;;;;;;;;;5051330;28;20148;-55